sensor_id;sensor_type;location;lat;lon;timestamp;P1;durP1;ratioP1;P2;durP2;ratioP2
60098;SDS011;62818;49.394;8.686;2023-09-12T00:00:48;18.60;;;6.17;;
60098;SDS011;62818;49.394;8.686;2023-09-12T00:01:49;13.27;;;5.60;;
60098;SDS011;62818;49.394;8.686;2023-09-12T00:02:49;19.00;;;6.27;;
60098;SDS011;62818;49.394;8.686;2023-09-12T00:03:50;12.00;;;5.70;;
60098;SDS011;62818;49.394;8.686;2023-09-12T00:04:51;20.27;;;5.77;;
60098;SDS011;62818;49.394;8.686;2023-09-12T00:05:54;19.60;;;5.63;;
60098;SDS011;62818;49.394;8.686;2023-09-12T00:06:56;19.60;;;6.20;;
60098;SDS011;62818;49.394;8.686;2023-09-12T00:07:57;15.17;;;6.17;;
60098;SDS011;62818;49.394;8.686;2023-09-12T00:08:57;16.93;;;5.80;;
60098;SDS011;62818;49.394;8.686;2023-09-12T00:09:58;14.93;;;5.77;;
60098;SDS011;62818;49.394;8.686;2023-09-12T00:11:02;22.10;;;5.90;;
60098;SDS011;62818;49.394;8.686;2023-09-12T00:12:13;14.38;;;6.13;;
60098;SDS011;62818;49.394;8.686;2023-09-12T00:13:15;18.00;;;6.45;;
60098;SDS011;62818;49.394;8.686;2023-09-12T00:14:16;16.27;;;5.53;;
60098;SDS011;62818;49.394;8.686;2023-09-12T00:15:17;14.38;;;5.90;;
60098;SDS011;62818;49.394;8.686;2023-09-12T00:16:19;14.30;;;5.50;;
60098;SDS011;62818;49.394;8.686;2023-09-12T00:17:20;18.20;;;5.07;;
60098;SDS011;62818;49.394;8.686;2023-09-12T00:18:20;14.70;;;5.73;;
60098;SDS011;62818;49.394;8.686;2023-09-12T00:19:21;13.93;;;5.50;;
60098;SDS011;62818;49.394;8.686;2023-09-12T00:20:21;20.20;;;6.10;;
60098;SDS011;62818;49.394;8.686;2023-09-12T00:21:22;11.03;;;5.47;;
60098;SDS011;62818;49.394;8.686;2023-09-12T00:22:22;14.43;;;6.17;;
60098;SDS011;62818;49.394;8.686;2023-09-12T00:23:23;16.40;;;6.03;;
60098;SDS011;62818;49.394;8.686;2023-09-12T00:24:23;18.50;;;5.43;;
60098;SDS011;62818;49.394;8.686;2023-09-12T00:25:24;15.80;;;5.40;;
60098;SDS011;62818;49.394;8.686;2023-09-12T00:26:24;20.27;;;5.83;;
60098;SDS011;62818;49.394;8.686;2023-09-12T00:27:25;15.33;;;5.40;;
60098;SDS011;62818;49.394;8.686;2023-09-12T00:28:25;24.97;;;6.30;;
60098;SDS011;62818;49.394;8.686;2023-09-12T00:29:26;11.37;;;5.30;;
60098;SDS011;62818;49.394;8.686;2023-09-12T00:30:26;19.57;;;6.37;;
60098;SDS011;62818;49.394;8.686;2023-09-12T00:31:27;13.97;;;5.43;;
60098;SDS011;62818;49.394;8.686;2023-09-12T00:32:27;16.10;;;5.25;;
60098;SDS011;62818;49.394;8.686;2023-09-12T00:33:28;16.77;;;5.10;;
60098;SDS011;62818;49.394;8.686;2023-09-12T00:34:29;12.27;;;4.90;;
60098;SDS011;62818;49.394;8.686;2023-09-12T00:35:29;14.63;;;5.23;;
60098;SDS011;62818;49.394;8.686;2023-09-12T00:36:29;12.93;;;4.90;;
60098;SDS011;62818;49.394;8.686;2023-09-12T00:37:30;13.47;;;5.47;;
60098;SDS011;62818;49.394;8.686;2023-09-12T00:38:31;13.90;;;5.23;;
60098;SDS011;62818;49.394;8.686;2023-09-12T00:39:31;15.25;;;4.93;;
60098;SDS011;62818;49.394;8.686;2023-09-12T00:40:32;13.07;;;4.87;;
60098;SDS011;62818;49.394;8.686;2023-09-12T00:41:33;14.52;;;4.95;;
60098;SDS011;62818;49.394;8.686;2023-09-12T00:42:33;18.03;;;5.77;;
60098;SDS011;62818;49.394;8.686;2023-09-12T00:43:34;12.17;;;5.50;;
60098;SDS011;62818;49.394;8.686;2023-09-12T00:44:34;13.67;;;5.13;;
60098;SDS011;62818;49.394;8.686;2023-09-12T00:45:35;13.60;;;5.20;;
60098;SDS011;62818;49.394;8.686;2023-09-12T00:46:35;12.20;;;5.53;;
60098;SDS011;62818;49.394;8.686;2023-09-12T00:47:36;12.02;;;5.35;;
60098;SDS011;62818;49.394;8.686;2023-09-12T00:48:37;20.27;;;4.82;;
60098;SDS011;62818;49.394;8.686;2023-09-12T00:49:39;12.95;;;5.75;;
60098;SDS011;62818;49.394;8.686;2023-09-12T00:50:40;13.00;;;4.75;;
60098;SDS011;62818;49.394;8.686;2023-09-12T00:51:43;14.43;;;5.15;;
60098;SDS011;62818;49.394;8.686;2023-09-12T00:52:45;13.60;;;5.15;;
60098;SDS011;62818;49.394;8.686;2023-09-12T00:53:47;16.13;;;5.40;;
60098;SDS011;62818;49.394;8.686;2023-09-12T00:54:48;12.73;;;5.15;;
60098;SDS011;62818;49.394;8.686;2023-09-12T00:55:53;20.07;;;5.33;;
60098;SDS011;62818;49.394;8.686;2023-09-12T00:56:59;17.30;;;5.70;;
60098;SDS011;62818;49.394;8.686;2023-09-12T00:57:59;16.77;;;4.87;;
60098;SDS011;62818;49.394;8.686;2023-09-12T00:59:01;14.63;;;5.85;;
60098;SDS011;62818;49.394;8.686;2023-09-12T01:00:05;13.48;;;4.53;;
60098;SDS011;62818;49.394;8.686;2023-09-12T01:01:12;18.08;;;5.53;;
60098;SDS011;62818;49.394;8.686;2023-09-12T01:02:12;13.13;;;5.13;;
60098;SDS011;62818;49.394;8.686;2023-09-12T01:03:13;12.75;;;6.35;;
60098;SDS011;62818;49.394;8.686;2023-09-12T01:04:14;10.60;;;5.10;;
60098;SDS011;62818;49.394;8.686;2023-09-12T01:05:15;21.63;;;5.78;;
60098;SDS011;62818;49.394;8.686;2023-09-12T01:07:21;16.17;;;5.63;;
60098;SDS011;62818;49.394;8.686;2023-09-12T01:08:22;10.47;;;5.40;;
60098;SDS011;62818;49.394;8.686;2023-09-12T01:09:23;11.97;;;5.47;;
60098;SDS011;62818;49.394;8.686;2023-09-12T01:10:24;12.10;;;5.20;;
60098;SDS011;62818;49.394;8.686;2023-09-12T01:11:24;18.70;;;6.17;;
60098;SDS011;62818;49.394;8.686;2023-09-12T01:12:26;12.35;;;5.15;;
60098;SDS011;62818;49.394;8.686;2023-09-12T01:13:28;12.65;;;5.03;;
60098;SDS011;62818;49.394;8.686;2023-09-12T01:14:29;12.67;;;5.30;;
60098;SDS011;62818;49.394;8.686;2023-09-12T01:15:30;13.43;;;5.47;;
60098;SDS011;62818;49.394;8.686;2023-09-12T01:16:31;16.67;;;5.97;;
60098;SDS011;62818;49.394;8.686;2023-09-12T01:17:31;15.23;;;5.43;;
60098;SDS011;62818;49.394;8.686;2023-09-12T01:18:32;26.70;;;6.33;;
60098;SDS011;62818;49.394;8.686;2023-09-12T01:19:33;18.95;;;5.30;;
60098;SDS011;62818;49.394;8.686;2023-09-12T01:20:34;18.53;;;5.67;;
60098;SDS011;62818;49.394;8.686;2023-09-12T01:21:38;13.98;;;5.15;;
60098;SDS011;62818;49.394;8.686;2023-09-12T01:23:21;13.25;;;5.75;;
60098;SDS011;62818;49.394;8.686;2023-09-12T01:25:07;16.50;;;5.72;;
60098;SDS011;62818;49.394;8.686;2023-09-12T01:26:49;19.38;;;5.90;;
60098;SDS011;62818;49.394;8.686;2023-09-12T01:27:53;14.18;;;5.63;;
60098;SDS011;62818;49.394;8.686;2023-09-12T01:28:58;15.02;;;5.20;;
60098;SDS011;62818;49.394;8.686;2023-09-12T01:30:01;12.63;;;5.47;;
60098;SDS011;62818;49.394;8.686;2023-09-12T01:31:05;15.23;;;5.45;;
60098;SDS011;62818;49.394;8.686;2023-09-12T01:32:06;13.90;;;5.63;;
60098;SDS011;62818;49.394;8.686;2023-09-12T01:33:07;10.30;;;4.78;;
60098;SDS011;62818;49.394;8.686;2023-09-12T01:34:11;14.15;;;5.10;;
60098;SDS011;62818;49.394;8.686;2023-09-12T01:35:12;15.43;;;5.63;;
60098;SDS011;62818;49.394;8.686;2023-09-12T01:36:13;12.95;;;5.25;;
60098;SDS011;62818;49.394;8.686;2023-09-12T01:37:14;11.93;;;5.20;;
60098;SDS011;62818;49.394;8.686;2023-09-12T01:38:15;18.27;;;5.45;;
60098;SDS011;62818;49.394;8.686;2023-09-12T01:39:15;14.40;;;5.70;;
60098;SDS011;62818;49.394;8.686;2023-09-12T01:40:16;15.03;;;4.83;;
60098;SDS011;62818;49.394;8.686;2023-09-12T01:41:17;16.13;;;5.80;;
60098;SDS011;62818;49.394;8.686;2023-09-12T01:42:20;12.02;;;5.15;;
60098;SDS011;62818;49.394;8.686;2023-09-12T01:43:23;16.05;;;5.43;;
60098;SDS011;62818;49.394;8.686;2023-09-12T01:44:27;10.90;;;5.07;;
60098;SDS011;62818;49.394;8.686;2023-09-12T01:45:30;13.02;;;5.60;;
60098;SDS011;62818;49.394;8.686;2023-09-12T01:46:31;13.70;;;5.60;;
60098;SDS011;62818;49.394;8.686;2023-09-12T01:47:35;15.27;;;5.35;;
60098;SDS011;62818;49.394;8.686;2023-09-12T01:48:38;14.85;;;5.30;;
60098;SDS011;62818;49.394;8.686;2023-09-12T01:49:42;13.98;;;4.97;;
60098;SDS011;62818;49.394;8.686;2023-09-12T01:50:47;12.93;;;5.60;;
60098;SDS011;62818;49.394;8.686;2023-09-12T01:51:48;11.00;;;5.15;;
60098;SDS011;62818;49.394;8.686;2023-09-12T01:52:50;12.70;;;5.40;;
60098;SDS011;62818;49.394;8.686;2023-09-12T01:53:52;11.57;;;5.18;;
60098;SDS011;62818;49.394;8.686;2023-09-12T01:54:54;14.27;;;5.60;;
60098;SDS011;62818;49.394;8.686;2023-09-12T01:55:56;18.52;;;5.95;;
60098;SDS011;62818;49.394;8.686;2023-09-12T01:56:58;27.73;;;5.85;;
60098;SDS011;62818;49.394;8.686;2023-09-12T01:57:59;14.05;;;5.10;;
60098;SDS011;62818;49.394;8.686;2023-09-12T01:59:00;12.83;;;5.50;;
60098;SDS011;62818;49.394;8.686;2023-09-12T02:00:03;15.43;;;5.43;;
60098;SDS011;62818;49.394;8.686;2023-09-12T02:01:04;12.70;;;5.70;;
60098;SDS011;62818;49.394;8.686;2023-09-12T02:02:04;12.13;;;5.73;;
60098;SDS011;62818;49.394;8.686;2023-09-12T02:03:05;17.53;;;5.83;;
60098;SDS011;62818;49.394;8.686;2023-09-12T02:04:06;16.27;;;5.63;;
60098;SDS011;62818;49.394;8.686;2023-09-12T02:05:13;12.60;;;4.97;;
60098;SDS011;62818;49.394;8.686;2023-09-12T02:06:18;13.48;;;5.15;;
60098;SDS011;62818;49.394;8.686;2023-09-12T02:07:19;10.87;;;5.40;;
60098;SDS011;62818;49.394;8.686;2023-09-12T02:08:23;13.88;;;5.75;;
60098;SDS011;62818;49.394;8.686;2023-09-12T02:09:24;15.83;;;5.90;;
60098;SDS011;62818;49.394;8.686;2023-09-12T02:10:24;12.50;;;5.72;;
60098;SDS011;62818;49.394;8.686;2023-09-12T02:11:28;13.47;;;5.40;;
60098;SDS011;62818;49.394;8.686;2023-09-12T02:12:28;13.07;;;5.15;;
60098;SDS011;62818;49.394;8.686;2023-09-12T02:13:29;16.27;;;5.60;;
60098;SDS011;62818;49.394;8.686;2023-09-12T02:14:29;15.73;;;5.70;;
60098;SDS011;62818;49.394;8.686;2023-09-12T02:15:30;14.80;;;5.27;;
60098;SDS011;62818;49.394;8.686;2023-09-12T02:16:31;15.20;;;5.83;;
60098;SDS011;62818;49.394;8.686;2023-09-12T02:17:32;14.20;;;5.47;;
60098;SDS011;62818;49.394;8.686;2023-09-12T02:18:32;8.80;;;4.93;;
60098;SDS011;62818;49.394;8.686;2023-09-12T02:19:33;13.53;;;5.30;;
60098;SDS011;62818;49.394;8.686;2023-09-12T02:20:37;12.70;;;6.03;;
60098;SDS011;62818;49.394;8.686;2023-09-12T02:21:40;12.82;;;5.57;;
60098;SDS011;62818;49.394;8.686;2023-09-12T02:22:40;15.87;;;5.93;;
60098;SDS011;62818;49.394;8.686;2023-09-12T02:23:41;10.53;;;5.37;;
60098;SDS011;62818;49.394;8.686;2023-09-12T02:24:42;15.10;;;5.70;;
60098;SDS011;62818;49.394;8.686;2023-09-12T02:25:42;12.63;;;5.30;;
60098;SDS011;62818;49.394;8.686;2023-09-12T02:26:43;18.37;;;6.27;;
60098;SDS011;62818;49.394;8.686;2023-09-12T02:27:44;15.13;;;5.30;;
60098;SDS011;62818;49.394;8.686;2023-09-12T02:28:45;17.47;;;5.03;;
60098;SDS011;62818;49.394;8.686;2023-09-12T02:29:46;15.15;;;5.40;;
60098;SDS011;62818;49.394;8.686;2023-09-12T02:30:46;11.50;;;5.30;;
60098;SDS011;62818;49.394;8.686;2023-09-12T02:31:47;15.70;;;5.27;;
60098;SDS011;62818;49.394;8.686;2023-09-12T02:32:47;14.97;;;5.87;;
60098;SDS011;62818;49.394;8.686;2023-09-12T02:33:48;17.00;;;5.67;;
60098;SDS011;62818;49.394;8.686;2023-09-12T02:34:48;13.30;;;5.07;;
60098;SDS011;62818;49.394;8.686;2023-09-12T02:35:49;12.57;;;5.33;;
60098;SDS011;62818;49.394;8.686;2023-09-12T02:36:49;14.63;;;5.70;;
60098;SDS011;62818;49.394;8.686;2023-09-12T02:37:50;15.20;;;5.67;;
60098;SDS011;62818;49.394;8.686;2023-09-12T02:38:50;12.13;;;5.50;;
60098;SDS011;62818;49.394;8.686;2023-09-12T02:39:51;13.60;;;5.13;;
60098;SDS011;62818;49.394;8.686;2023-09-12T02:40:51;15.23;;;5.53;;
60098;SDS011;62818;49.394;8.686;2023-09-12T02:41:52;14.30;;;5.23;;
60098;SDS011;62818;49.394;8.686;2023-09-12T02:42:52;12.87;;;5.30;;
60098;SDS011;62818;49.394;8.686;2023-09-12T02:43:53;13.77;;;5.57;;
60098;SDS011;62818;49.394;8.686;2023-09-12T02:44:53;13.83;;;5.03;;
60098;SDS011;62818;49.394;8.686;2023-09-12T02:45:54;15.30;;;5.53;;
60098;SDS011;62818;49.394;8.686;2023-09-12T02:46:54;21.20;;;5.68;;
60098;SDS011;62818;49.394;8.686;2023-09-12T02:47:55;11.07;;;5.80;;
60098;SDS011;62818;49.394;8.686;2023-09-12T02:48:55;14.13;;;5.90;;
60098;SDS011;62818;49.394;8.686;2023-09-12T02:49:56;17.67;;;5.77;;
60098;SDS011;62818;49.394;8.686;2023-09-12T02:50:56;15.40;;;5.93;;
60098;SDS011;62818;49.394;8.686;2023-09-12T02:51:57;9.33;;;5.10;;
60098;SDS011;62818;49.394;8.686;2023-09-12T02:52:57;14.87;;;5.53;;
60098;SDS011;62818;49.394;8.686;2023-09-12T02:53:58;17.60;;;5.50;;
60098;SDS011;62818;49.394;8.686;2023-09-12T02:54:58;15.53;;;5.60;;
60098;SDS011;62818;49.394;8.686;2023-09-12T02:55:59;15.37;;;5.47;;
60098;SDS011;62818;49.394;8.686;2023-09-12T02:56:59;14.50;;;6.00;;
60098;SDS011;62818;49.394;8.686;2023-09-12T02:57:59;10.60;;;5.40;;
60098;SDS011;62818;49.394;8.686;2023-09-12T02:59:00;14.67;;;5.90;;
60098;SDS011;62818;49.394;8.686;2023-09-12T03:00:00;13.03;;;5.03;;
60098;SDS011;62818;49.394;8.686;2023-09-12T03:01:01;13.80;;;5.67;;
60098;SDS011;62818;49.394;8.686;2023-09-12T03:02:03;14.48;;;5.85;;
60098;SDS011;62818;49.394;8.686;2023-09-12T03:03:04;15.77;;;5.27;;
60098;SDS011;62818;49.394;8.686;2023-09-12T03:04:04;17.53;;;5.43;;
60098;SDS011;62818;49.394;8.686;2023-09-12T03:05:05;8.80;;;5.27;;
60098;SDS011;62818;49.394;8.686;2023-09-12T03:06:05;11.35;;;5.30;;
60098;SDS011;62818;49.394;8.686;2023-09-12T03:07:06;10.97;;;5.50;;
60098;SDS011;62818;49.394;8.686;2023-09-12T03:08:06;11.73;;;5.33;;
60098;SDS011;62818;49.394;8.686;2023-09-12T03:09:07;15.50;;;5.90;;
60098;SDS011;62818;49.394;8.686;2023-09-12T03:10:08;11.40;;;5.43;;
60098;SDS011;62818;49.394;8.686;2023-09-12T03:11:08;10.88;;;5.20;;
60098;SDS011;62818;49.394;8.686;2023-09-12T03:12:09;16.83;;;6.07;;
60098;SDS011;62818;49.394;8.686;2023-09-12T03:13:11;17.77;;;6.67;;
60098;SDS011;62818;49.394;8.686;2023-09-12T03:14:12;16.60;;;5.55;;
60098;SDS011;62818;49.394;8.686;2023-09-12T03:15:13;16.27;;;5.23;;
60098;SDS011;62818;49.394;8.686;2023-09-12T03:16:13;12.00;;;5.50;;
60098;SDS011;62818;49.394;8.686;2023-09-12T03:17:15;12.13;;;5.57;;
60098;SDS011;62818;49.394;8.686;2023-09-12T03:18:15;12.83;;;5.83;;
60098;SDS011;62818;49.394;8.686;2023-09-12T03:19:19;13.70;;;5.93;;
60098;SDS011;62818;49.394;8.686;2023-09-12T03:20:19;13.02;;;5.75;;
60098;SDS011;62818;49.394;8.686;2023-09-12T03:21:20;15.15;;;6.07;;
60098;SDS011;62818;49.394;8.686;2023-09-12T03:22:21;16.73;;;5.45;;
60098;SDS011;62818;49.394;8.686;2023-09-12T03:23:22;12.70;;;5.60;;
60098;SDS011;62818;49.394;8.686;2023-09-12T03:24:22;13.13;;;5.90;;
60098;SDS011;62818;49.394;8.686;2023-09-12T03:25:24;15.43;;;6.13;;
60098;SDS011;62818;49.394;8.686;2023-09-12T03:26:25;13.37;;;6.03;;
60098;SDS011;62818;49.394;8.686;2023-09-12T03:27:26;13.18;;;6.00;;
60098;SDS011;62818;49.394;8.686;2023-09-12T03:28:27;14.43;;;5.63;;
60098;SDS011;62818;49.394;8.686;2023-09-12T03:29:27;22.90;;;6.10;;
60098;SDS011;62818;49.394;8.686;2023-09-12T03:30:28;19.10;;;6.53;;
60098;SDS011;62818;49.394;8.686;2023-09-12T03:31:28;13.63;;;5.80;;
60098;SDS011;62818;49.394;8.686;2023-09-12T03:32:29;20.87;;;7.60;;
60098;SDS011;62818;49.394;8.686;2023-09-12T03:33:29;15.07;;;6.00;;
60098;SDS011;62818;49.394;8.686;2023-09-12T03:34:29;19.07;;;5.73;;
60098;SDS011;62818;49.394;8.686;2023-09-12T03:35:31;14.27;;;6.00;;
60098;SDS011;62818;49.394;8.686;2023-09-12T03:36:33;14.45;;;5.47;;
60098;SDS011;62818;49.394;8.686;2023-09-12T03:37:33;14.87;;;5.20;;
60098;SDS011;62818;49.394;8.686;2023-09-12T03:38:34;16.50;;;5.73;;
60098;SDS011;62818;49.394;8.686;2023-09-12T03:39:35;14.93;;;6.18;;
60098;SDS011;62818;49.394;8.686;2023-09-12T03:40:36;20.27;;;6.97;;
60098;SDS011;62818;49.394;8.686;2023-09-12T03:41:36;17.17;;;6.87;;
60098;SDS011;62818;49.394;8.686;2023-09-12T03:42:37;16.00;;;5.97;;
60098;SDS011;62818;49.394;8.686;2023-09-12T03:43:37;11.97;;;5.43;;
60098;SDS011;62818;49.394;8.686;2023-09-12T03:44:38;14.67;;;5.20;;
60098;SDS011;62818;49.394;8.686;2023-09-12T03:45:38;14.10;;;6.13;;
60098;SDS011;62818;49.394;8.686;2023-09-12T03:46:39;14.67;;;6.20;;
60098;SDS011;62818;49.394;8.686;2023-09-12T03:47:39;14.00;;;6.40;;
60098;SDS011;62818;49.394;8.686;2023-09-12T03:48:40;15.03;;;6.03;;
60098;SDS011;62818;49.394;8.686;2023-09-12T03:49:40;18.17;;;6.80;;
60098;SDS011;62818;49.394;8.686;2023-09-12T03:50:41;15.40;;;6.07;;
60098;SDS011;62818;49.394;8.686;2023-09-12T03:51:41;15.20;;;6.27;;
60098;SDS011;62818;49.394;8.686;2023-09-12T03:52:41;9.93;;;5.90;;
60098;SDS011;62818;49.394;8.686;2023-09-12T03:53:42;9.23;;;5.73;;
60098;SDS011;62818;49.394;8.686;2023-09-12T03:54:42;14.17;;;5.77;;
60098;SDS011;62818;49.394;8.686;2023-09-12T03:55:43;15.97;;;6.67;;
60098;SDS011;62818;49.394;8.686;2023-09-12T03:56:43;13.45;;;6.97;;
60098;SDS011;62818;49.394;8.686;2023-09-12T03:57:44;17.70;;;6.17;;
60098;SDS011;62818;49.394;8.686;2023-09-12T03:58:44;11.30;;;5.90;;
60098;SDS011;62818;49.394;8.686;2023-09-12T03:59:45;11.05;;;5.78;;
60098;SDS011;62818;49.394;8.686;2023-09-12T04:00:46;14.20;;;6.00;;
60098;SDS011;62818;49.394;8.686;2023-09-12T04:01:47;24.77;;;6.20;;
60098;SDS011;62818;49.394;8.686;2023-09-12T04:02:47;17.27;;;6.50;;
60098;SDS011;62818;49.394;8.686;2023-09-12T04:03:48;13.87;;;6.03;;
60098;SDS011;62818;49.394;8.686;2023-09-12T04:04:48;15.40;;;5.97;;
60098;SDS011;62818;49.394;8.686;2023-09-12T04:05:49;12.40;;;6.40;;
60098;SDS011;62818;49.394;8.686;2023-09-12T04:06:51;14.68;;;6.10;;
60098;SDS011;62818;49.394;8.686;2023-09-12T04:07:51;13.90;;;6.30;;
60098;SDS011;62818;49.394;8.686;2023-09-12T04:08:52;18.02;;;6.65;;
60098;SDS011;62818;49.394;8.686;2023-09-12T04:09:53;21.90;;;6.70;;
60098;SDS011;62818;49.394;8.686;2023-09-12T04:10:53;22.80;;;7.57;;
60098;SDS011;62818;49.394;8.686;2023-09-12T04:11:53;18.20;;;8.63;;
60098;SDS011;62818;49.394;8.686;2023-09-12T04:12:54;20.50;;;9.50;;
60098;SDS011;62818;49.394;8.686;2023-09-12T04:13:54;17.87;;;7.03;;
60098;SDS011;62818;49.394;8.686;2023-09-12T04:14:55;11.80;;;5.97;;
60098;SDS011;62818;49.394;8.686;2023-09-12T04:15:55;17.57;;;6.60;;
60098;SDS011;62818;49.394;8.686;2023-09-12T04:16:56;18.60;;;6.73;;
60098;SDS011;62818;49.394;8.686;2023-09-12T04:17:56;14.37;;;6.20;;
60098;SDS011;62818;49.394;8.686;2023-09-12T04:18:57;14.77;;;6.67;;
60098;SDS011;62818;49.394;8.686;2023-09-12T04:19:57;15.87;;;6.37;;
60098;SDS011;62818;49.394;8.686;2023-09-12T04:20:58;17.97;;;6.00;;
60098;SDS011;62818;49.394;8.686;2023-09-12T04:21:58;20.73;;;6.47;;
60098;SDS011;62818;49.394;8.686;2023-09-12T04:23:03;17.42;;;6.40;;
60098;SDS011;62818;49.394;8.686;2023-09-12T04:24:04;15.23;;;6.20;;
60098;SDS011;62818;49.394;8.686;2023-09-12T04:25:05;15.30;;;6.55;;
60098;SDS011;62818;49.394;8.686;2023-09-12T04:26:06;17.25;;;6.53;;
60098;SDS011;62818;49.394;8.686;2023-09-12T04:27:07;14.13;;;6.80;;
60098;SDS011;62818;49.394;8.686;2023-09-12T04:28:07;10.85;;;5.55;;
60098;SDS011;62818;49.394;8.686;2023-09-12T04:29:08;14.50;;;6.20;;
60098;SDS011;62818;49.394;8.686;2023-09-12T04:30:08;16.23;;;6.77;;
60098;SDS011;62818;49.394;8.686;2023-09-12T04:31:09;12.25;;;5.55;;
60098;SDS011;62818;49.394;8.686;2023-09-12T04:32:10;20.50;;;6.23;;
60098;SDS011;62818;49.394;8.686;2023-09-12T04:33:10;17.57;;;6.00;;
60098;SDS011;62818;49.394;8.686;2023-09-12T04:34:11;17.60;;;5.23;;
60098;SDS011;62818;49.394;8.686;2023-09-12T04:35:11;16.57;;;6.17;;
60098;SDS011;62818;49.394;8.686;2023-09-12T04:36:12;13.90;;;5.40;;
60098;SDS011;62818;49.394;8.686;2023-09-12T04:37:12;11.90;;;6.07;;
60098;SDS011;62818;49.394;8.686;2023-09-12T04:38:13;20.20;;;5.63;;
60098;SDS011;62818;49.394;8.686;2023-09-12T04:39:13;16.00;;;6.13;;
60098;SDS011;62818;49.394;8.686;2023-09-12T04:40:14;13.70;;;5.25;;
60098;SDS011;62818;49.394;8.686;2023-09-12T04:41:15;13.25;;;5.65;;
60098;SDS011;62818;49.394;8.686;2023-09-12T04:42:17;13.93;;;5.80;;
60098;SDS011;62818;49.394;8.686;2023-09-12T04:43:17;10.83;;;5.53;;
60098;SDS011;62818;49.394;8.686;2023-09-12T04:44:18;13.70;;;5.67;;
60098;SDS011;62818;49.394;8.686;2023-09-12T04:45:18;15.60;;;5.70;;
60098;SDS011;62818;49.394;8.686;2023-09-12T04:46:19;18.47;;;5.43;;
60098;SDS011;62818;49.394;8.686;2023-09-12T04:47:19;16.97;;;5.80;;
60098;SDS011;62818;49.394;8.686;2023-09-12T04:48:21;12.10;;;5.20;;
60098;SDS011;62818;49.394;8.686;2023-09-12T04:49:21;14.27;;;5.43;;
60098;SDS011;62818;49.394;8.686;2023-09-12T04:50:22;14.90;;;5.53;;
60098;SDS011;62818;49.394;8.686;2023-09-12T04:51:23;16.37;;;6.03;;
60098;SDS011;62818;49.394;8.686;2023-09-12T04:52:23;19.57;;;6.07;;
60098;SDS011;62818;49.394;8.686;2023-09-12T04:53:24;19.80;;;6.73;;
60098;SDS011;62818;49.394;8.686;2023-09-12T04:54:24;12.75;;;6.05;;
60098;SDS011;62818;49.394;8.686;2023-09-12T04:55:25;15.27;;;5.53;;
60098;SDS011;62818;49.394;8.686;2023-09-12T04:56:25;20.57;;;6.00;;
60098;SDS011;62818;49.394;8.686;2023-09-12T04:57:26;16.80;;;5.73;;
60098;SDS011;62818;49.394;8.686;2023-09-12T04:58:30;18.83;;;6.30;;
60098;SDS011;62818;49.394;8.686;2023-09-12T04:59:31;18.97;;;5.67;;
60098;SDS011;62818;49.394;8.686;2023-09-12T05:00:32;14.87;;;6.60;;
60098;SDS011;62818;49.394;8.686;2023-09-12T05:01:33;17.90;;;6.18;;
60098;SDS011;62818;49.394;8.686;2023-09-12T05:02:34;13.47;;;5.90;;
60098;SDS011;62818;49.394;8.686;2023-09-12T05:03:34;17.93;;;5.57;;
60098;SDS011;62818;49.394;8.686;2023-09-12T05:04:35;11.20;;;5.88;;
60098;SDS011;62818;49.394;8.686;2023-09-12T05:05:36;19.03;;;6.77;;
60098;SDS011;62818;49.394;8.686;2023-09-12T05:06:37;13.60;;;6.10;;
60098;SDS011;62818;49.394;8.686;2023-09-12T05:07:37;13.17;;;6.60;;
60098;SDS011;62818;49.394;8.686;2023-09-12T05:08:38;13.07;;;6.73;;
60098;SDS011;62818;49.394;8.686;2023-09-12T05:09:38;18.05;;;6.68;;
60098;SDS011;62818;49.394;8.686;2023-09-12T05:10:39;16.40;;;6.60;;
60098;SDS011;62818;49.394;8.686;2023-09-12T05:11:39;15.50;;;6.63;;
60098;SDS011;62818;49.394;8.686;2023-09-12T05:12:40;21.17;;;6.10;;
60098;SDS011;62818;49.394;8.686;2023-09-12T05:13:40;16.30;;;6.43;;
60098;SDS011;62818;49.394;8.686;2023-09-12T05:14:41;17.27;;;6.60;;
60098;SDS011;62818;49.394;8.686;2023-09-12T05:15:41;16.90;;;6.73;;
60098;SDS011;62818;49.394;8.686;2023-09-12T05:16:42;13.83;;;5.93;;
60098;SDS011;62818;49.394;8.686;2023-09-12T05:17:42;15.17;;;6.03;;
60098;SDS011;62818;49.394;8.686;2023-09-12T05:18:43;15.93;;;6.33;;
60098;SDS011;62818;49.394;8.686;2023-09-12T05:19:43;14.33;;;6.37;;
60098;SDS011;62818;49.394;8.686;2023-09-12T05:20:44;12.43;;;5.07;;
60098;SDS011;62818;49.394;8.686;2023-09-12T05:21:44;15.47;;;6.07;;
60098;SDS011;62818;49.394;8.686;2023-09-12T05:22:45;14.20;;;5.37;;
60098;SDS011;62818;49.394;8.686;2023-09-12T05:23:45;17.30;;;6.77;;
60098;SDS011;62818;49.394;8.686;2023-09-12T05:24:46;11.53;;;5.60;;
60098;SDS011;62818;49.394;8.686;2023-09-12T05:25:47;15.90;;;6.30;;
60098;SDS011;62818;49.394;8.686;2023-09-12T05:26:47;11.47;;;6.10;;
60098;SDS011;62818;49.394;8.686;2023-09-12T05:28:49;16.10;;;5.97;;
60098;SDS011;62818;49.394;8.686;2023-09-12T05:29:50;12.53;;;5.67;;
60098;SDS011;62818;49.394;8.686;2023-09-12T05:30:50;12.60;;;6.10;;
60098;SDS011;62818;49.394;8.686;2023-09-12T05:31:51;12.17;;;6.70;;
60098;SDS011;62818;49.394;8.686;2023-09-12T05:32:52;16.97;;;7.07;;
60098;SDS011;62818;49.394;8.686;2023-09-12T05:33:52;19.70;;;6.78;;
60098;SDS011;62818;49.394;8.686;2023-09-12T05:34:53;19.67;;;6.83;;
60098;SDS011;62818;49.394;8.686;2023-09-12T05:35:53;23.90;;;7.47;;
60098;SDS011;62818;49.394;8.686;2023-09-12T05:36:54;20.27;;;6.70;;
60098;SDS011;62818;49.394;8.686;2023-09-12T05:37:54;14.87;;;6.53;;
60098;SDS011;62818;49.394;8.686;2023-09-12T05:38:55;18.40;;;6.53;;
60098;SDS011;62818;49.394;8.686;2023-09-12T05:39:55;15.70;;;6.43;;
60098;SDS011;62818;49.394;8.686;2023-09-12T05:40:56;18.13;;;5.67;;
60098;SDS011;62818;49.394;8.686;2023-09-12T05:41:57;15.52;;;6.50;;
60098;SDS011;62818;49.394;8.686;2023-09-12T05:42:57;18.50;;;6.57;;
60098;SDS011;62818;49.394;8.686;2023-09-12T05:43:58;18.85;;;6.47;;
60098;SDS011;62818;49.394;8.686;2023-09-12T05:44:59;24.10;;;6.63;;
60098;SDS011;62818;49.394;8.686;2023-09-12T05:45:59;14.57;;;6.23;;
60098;SDS011;62818;49.394;8.686;2023-09-12T05:47:00;14.50;;;6.00;;
60098;SDS011;62818;49.394;8.686;2023-09-12T05:48:00;17.17;;;6.37;;
60098;SDS011;62818;49.394;8.686;2023-09-12T05:49:01;11.90;;;5.67;;
60098;SDS011;62818;49.394;8.686;2023-09-12T05:50:01;17.93;;;6.17;;
60098;SDS011;62818;49.394;8.686;2023-09-12T05:51:05;11.55;;;7.47;;
60098;SDS011;62818;49.394;8.686;2023-09-12T05:52:06;19.90;;;6.87;;
60098;SDS011;62818;49.394;8.686;2023-09-12T05:53:07;17.17;;;7.17;;
60098;SDS011;62818;49.394;8.686;2023-09-12T05:54:09;18.27;;;6.90;;
60098;SDS011;62818;49.394;8.686;2023-09-12T05:55:14;16.75;;;6.53;;
60098;SDS011;62818;49.394;8.686;2023-09-12T05:56:16;20.90;;;7.13;;
60098;SDS011;62818;49.394;8.686;2023-09-12T05:57:16;27.27;;;7.87;;
60098;SDS011;62818;49.394;8.686;2023-09-12T05:58:17;22.33;;;7.03;;
60098;SDS011;62818;49.394;8.686;2023-09-12T05:59:17;21.87;;;6.70;;
60098;SDS011;62818;49.394;8.686;2023-09-12T06:00:18;22.67;;;7.40;;
60098;SDS011;62818;49.394;8.686;2023-09-12T06:01:18;28.20;;;8.95;;
60098;SDS011;62818;49.394;8.686;2023-09-12T06:02:19;16.40;;;6.97;;
60098;SDS011;62818;49.394;8.686;2023-09-12T06:03:21;23.77;;;8.07;;
60098;SDS011;62818;49.394;8.686;2023-09-12T06:04:21;19.15;;;8.55;;
60098;SDS011;62818;49.394;8.686;2023-09-12T06:05:22;20.63;;;7.73;;
60098;SDS011;62818;49.394;8.686;2023-09-12T06:06:23;16.55;;;7.60;;
60098;SDS011;62818;49.394;8.686;2023-09-12T06:07:23;19.77;;;7.05;;